createdAt,value
2023-03-26T00:05:18.713Z,7.60
2023-03-26T00:11:22.340Z,7.60
2023-03-26T00:17:24.763Z,7.60
2023-03-26T00:23:28.316Z,7.60
2023-03-26T00:29:33.329Z,7.60
2023-03-26T00:35:38.990Z,7.70
2023-03-26T00:41:43.465Z,7.70
2023-03-26T00:47:45.490Z,7.60
2023-03-26T00:53:49.136Z,7.70
2023-03-26T00:59:51.134Z,7.70
2023-03-26T01:06:04.878Z,7.70
2023-03-26T01:12:08.764Z,7.70
2023-03-26T01:18:14.139Z,7.60
2023-03-26T01:24:16.264Z,7.60
2023-03-26T01:30:42.569Z,7.70
2023-03-26T01:36:50.491Z,7.70
2023-03-26T01:42:56.683Z,7.70
2023-03-26T01:48:58.666Z,7.70
2023-03-26T01:55:00.992Z,7.70
2023-03-26T02:01:38.137Z,7.60
2023-03-26T02:08:36.005Z,7.70
2023-03-26T02:14:38.106Z,7.70
2023-03-26T02:20:40.238Z,7.60
2023-03-26T02:26:42.250Z,7.60
2023-03-26T02:32:44.286Z,7.60
2023-03-26T02:38:46.788Z,7.60
2023-03-26T02:44:48.763Z,7.50
2023-03-26T02:50:54.688Z,7.20
2023-03-26T02:56:57.018Z,6.90
2023-03-26T03:02:59.181Z,6.80
2023-03-26T03:09:04.965Z,6.80
2023-03-26T03:15:07.882Z,6.60
2023-03-26T03:21:09.786Z,6.40
2023-03-26T03:27:12.674Z,6.30
2023-03-26T03:33:14.672Z,6.30
2023-03-26T03:39:16.484Z,6.40
2023-03-26T03:45:18.445Z,6.50
2023-03-26T03:51:20.549Z,6.80
2023-03-26T03:57:22.385Z,7.00
2023-03-26T04:03:33.370Z,7.10
2023-03-26T04:09:36.379Z,7.20
2023-03-26T04:15:38.470Z,7.10
2023-03-26T04:21:42.864Z,7.00
2023-03-26T04:27:45.311Z,7.10
2023-03-26T04:33:47.941Z,7.00
2023-03-26T04:39:50.401Z,7.00
2023-03-26T04:45:53.434Z,7.00
2023-03-26T04:51:55.849Z,7.00
2023-03-26T04:58:04.629Z,7.00
2023-03-26T05:04:06.653Z,7.00
2023-03-26T05:10:12.392Z,7.10
2023-03-26T05:16:14.386Z,7.20
2023-03-26T05:22:16.307Z,7.20
2023-03-26T05:28:20.813Z,7.20
2023-03-26T05:34:26.671Z,7.20
2023-03-26T05:40:30.251Z,7.20
2023-03-26T05:46:32.438Z,7.30
2023-03-26T05:52:34.783Z,7.30
2023-03-26T05:58:38.002Z,7.30
2023-03-26T06:04:42.780Z,7.30
2023-03-26T06:10:45.135Z,7.40
2023-03-26T06:16:47.156Z,7.40
2023-03-26T06:22:49.034Z,7.30
2023-03-26T06:28:51.903Z,7.40
2023-03-26T06:35:04.077Z,7.40
2023-03-26T06:41:07.237Z,7.30
2023-03-26T06:47:09.346Z,7.50
2023-03-26T06:53:11.746Z,7.60
2023-03-26T06:59:13.763Z,7.60
2023-03-26T07:05:16.378Z,7.70
2023-03-26T07:11:20.832Z,7.60
2023-03-26T07:17:22.846Z,7.70
2023-03-26T07:23:25.445Z,7.80
2023-03-26T07:29:46.051Z,7.70
2023-03-26T07:36:19.138Z,7.70
2023-03-26T07:42:43.417Z,7.90
2023-03-26T07:48:50.168Z,8.20
2023-03-26T07:54:52.689Z,8.10
2023-03-26T08:01:02.305Z,7.90
2023-03-26T08:07:16.573Z,7.80
2023-03-26T08:13:36.952Z,7.80
2023-03-26T08:19:58.909Z,8.00
2023-03-26T08:26:24.644Z,8.40
2023-03-26T08:32:27.348Z,8.50
2023-03-26T08:38:29.777Z,8.40
2023-03-26T08:45:09.400Z,8.30
2023-03-26T08:51:49.378Z,8.20
2023-03-26T08:58:38.653Z,8.00
2023-03-26T09:05:00.391Z,8.30
2023-03-26T09:11:46.806Z,8.20
2023-03-26T09:18:25.765Z,8.00
2023-03-26T09:25:05.871Z,7.90
2023-03-26T09:31:43.334Z,8.20
2023-03-26T09:37:58.302Z,8.60
2023-03-26T09:44:25.036Z,8.80
2023-03-26T09:50:54.045Z,9.10
2023-03-26T09:57:03.161Z,9.20
2023-03-26T10:03:28.122Z,9.20
2023-03-26T10:09:37.912Z,9.00
2023-03-26T10:16:12.373Z,9.00
2023-03-26T10:22:43.507Z,9.10
2023-03-26T10:29:00.368Z,9.10
2023-03-26T10:35:46.125Z,9.20
2023-03-26T10:41:54.024Z,9.20
2023-03-26T10:48:12.474Z,9.80
2023-03-26T10:54:27.162Z,9.90
2023-03-26T11:00:30.148Z,10.20
2023-03-26T11:07:00.746Z,10.20
2023-03-26T11:13:27.994Z,10.40
2023-03-26T11:19:53.314Z,10.40
2023-03-26T11:25:55.329Z,10.40
2023-03-26T11:32:17.726Z,9.90
2023-03-26T11:38:39.244Z,9.60
2023-03-26T11:44:48.005Z,9.40
2023-03-26T11:50:55.758Z,9.40
2023-03-26T11:57:07.186Z,9.40
2023-03-26T12:03:15.775Z,9.60
2023-03-26T12:09:19.731Z,9.70
2023-03-26T12:15:22.828Z,9.40
2023-03-26T12:21:24.639Z,9.70
2023-03-26T12:27:30.948Z,9.60
2023-03-26T12:33:35.324Z,9.60
2023-03-26T12:40:10.246Z,9.50
2023-03-26T12:46:44.172Z,9.80
2023-03-26T12:52:59.918Z,9.60
2023-03-26T12:59:40.056Z,9.70
2023-03-26T13:06:30.109Z,9.70
2023-03-26T13:12:38.312Z,9.40
2023-03-26T13:18:50.733Z,9.40
2023-03-26T13:24:55.578Z,9.20
2023-03-26T13:31:24.724Z,9.20
2023-03-26T13:37:50.009Z,9.00
2023-03-26T13:43:57.390Z,8.70
2023-03-26T13:50:24.295Z,8.70
2023-03-26T13:56:31.990Z,8.60
2023-03-26T14:02:36.136Z,8.60
2023-03-26T14:09:02.791Z,8.30
2023-03-26T14:15:11.074Z,8.20
2023-03-26T14:21:43.807Z,8.10
2023-03-26T14:28:06.145Z,8.00
2023-03-26T14:34:30.597Z,7.90
2023-03-26T14:40:51.286Z,7.80
2023-03-26T14:47:36.068Z,7.60
2023-03-26T14:53:48.888Z,7.50
2023-03-26T15:00:19.146Z,7.70
2023-03-26T15:06:48.694Z,7.60
2023-03-26T15:13:30.025Z,7.40
2023-03-26T15:19:45.529Z,7.40
2023-03-26T15:26:22.029Z,7.30
2023-03-26T15:32:42.118Z,7.40
2023-03-26T15:38:47.032Z,7.40
2023-03-26T15:45:15.931Z,7.40
2023-03-26T15:51:46.765Z,7.50
2023-03-26T15:58:07.844Z,7.50
2023-03-26T16:04:39.192Z,7.50
2023-03-26T16:10:52.738Z,7.40
2023-03-26T16:16:57.704Z,7.40
2023-03-26T16:23:04.668Z,7.30
2023-03-26T16:29:18.335Z,7.20
2023-03-26T16:35:20.223Z,7.20
2023-03-26T16:41:28.782Z,7.20
2023-03-26T16:47:51.877Z,7.20
2023-03-26T16:54:17.642Z,7.20
2023-03-26T17:00:24.565Z,7.20
2023-03-26T17:06:46.842Z,7.00
2023-03-26T17:12:55.682Z,7.00
2023-03-26T17:19:17.878Z,7.00
2023-03-26T17:25:35.188Z,6.90
2023-03-26T17:31:44.736Z,6.90
2023-03-26T17:37:48.171Z,6.80
2023-03-26T17:43:51.984Z,6.70
2023-03-26T17:50:00.751Z,6.60
2023-03-26T17:56:07.092Z,6.40
2023-03-26T18:02:16.254Z,6.30
2023-03-26T18:08:18.105Z,6.20
2023-03-26T18:14:48.133Z,6.10
2023-03-26T18:20:54.685Z,5.90
2023-03-26T18:27:01.596Z,5.80
2023-03-26T18:33:12.749Z,5.70
2023-03-26T18:39:14.632Z,5.60
2023-03-26T18:45:29.768Z,5.50
2023-03-26T18:51:33.042Z,5.30
2023-03-26T18:57:38.438Z,5.20
2023-03-26T19:03:44.763Z,4.90
2023-03-26T19:09:47.068Z,4.80
2023-03-26T19:15:54.745Z,4.70
2023-03-26T19:21:59.065Z,4.60
2023-03-26T19:28:02.016Z,4.50
2023-03-26T19:34:14.460Z,4.30
2023-03-26T19:40:31.819Z,4.20
2023-03-26T19:46:52.830Z,4.20
2023-03-26T19:53:17.097Z,4.10
2023-03-26T19:59:19.495Z,4.00
2023-03-26T20:05:27.199Z,3.90
2023-03-26T20:11:36.578Z,3.90
2023-03-26T20:17:43.020Z,3.80
2023-03-26T20:23:45.122Z,3.80
2023-03-26T20:29:47.746Z,3.70
2023-03-26T20:35:49.670Z,3.60
2023-03-26T20:41:52.960Z,3.50
2023-03-26T20:47:55.069Z,3.50
2023-03-26T20:53:56.896Z,3.30
2023-03-26T20:59:59.789Z,3.20
2023-03-26T21:06:03.925Z,3.20
2023-03-26T21:12:07.886Z,3.20
2023-03-26T21:18:10.369Z,3.20
2023-03-26T21:24:23.998Z,3.20
2023-03-26T21:30:26.307Z,3.20
2023-03-26T21:36:28.799Z,3.20
2023-03-26T21:42:31.124Z,3.00
2023-03-26T21:48:33.408Z,3.10
2023-03-26T21:54:35.646Z,3.10
2023-03-26T22:01:09.517Z,3.10
2023-03-26T22:07:17.704Z,3.00
2023-03-26T22:13:19.597Z,2.90
2023-03-26T22:19:21.509Z,2.90
2023-03-26T22:25:24.211Z,2.90
2023-03-26T22:31:26.543Z,2.80
2023-03-26T22:37:28.748Z,2.80
2023-03-26T22:43:30.789Z,2.80
2023-03-26T22:49:32.731Z,2.60
2023-03-26T22:55:34.831Z,2.50
2023-03-26T23:01:36.716Z,2.50
2023-03-26T23:07:38.755Z,2.40
2023-03-26T23:13:42.000Z,2.30
2023-03-26T23:19:44.620Z,2.30
2023-03-26T23:25:46.943Z,2.30
2023-03-26T23:31:48.853Z,2.20
2023-03-26T23:37:51.019Z,2.30
2023-03-26T23:43:56.151Z,2.20
2023-03-26T23:49:58.373Z,2.20
2023-03-26T23:56:00.699Z,2.10
